sensor_id;sensor_type;location;lat;lon;timestamp;P1;durP1;ratioP1;P2;durP2;ratioP2
3779;SDS011;1905;52.482;9.802;2023-03-01T00:01:08;5.03;;;4.50;;
3779;SDS011;1905;52.482;9.802;2023-03-01T00:03:38;7.07;;;4.60;;
3779;SDS011;1905;52.482;9.802;2023-03-01T00:06:06;5.33;;;3.63;;
3779;SDS011;1905;52.482;9.802;2023-03-01T00:08:34;7.13;;;4.67;;
3779;SDS011;1905;52.482;9.802;2023-03-01T00:11:03;5.83;;;5.20;;
3779;SDS011;1905;52.482;9.802;2023-03-01T00:13:32;8.50;;;4.27;;
3779;SDS011;1905;52.482;9.802;2023-03-01T00:16:01;8.20;;;3.77;;
3779;SDS011;1905;52.482;9.802;2023-03-01T00:18:29;5.63;;;4.23;;
3779;SDS011;1905;52.482;9.802;2023-03-01T00:20:58;5.97;;;4.50;;
3779;SDS011;1905;52.482;9.802;2023-03-01T00:23:26;5.00;;;4.50;;
3779;SDS011;1905;52.482;9.802;2023-03-01T00:25:54;9.37;;;4.43;;
3779;SDS011;1905;52.482;9.802;2023-03-01T00:28:22;6.10;;;4.07;;
3779;SDS011;1905;52.482;9.802;2023-03-01T00:30:49;4.60;;;4.20;;
3779;SDS011;1905;52.482;9.802;2023-03-01T00:33:17;6.67;;;4.40;;
3779;SDS011;1905;52.482;9.802;2023-03-01T00:35:45;8.03;;;4.33;;
3779;SDS011;1905;52.482;9.802;2023-03-01T00:38:14;5.30;;;4.10;;
3779;SDS011;1905;52.482;9.802;2023-03-01T00:40:41;8.40;;;4.67;;
3779;SDS011;1905;52.482;9.802;2023-03-01T00:43:09;6.90;;;4.80;;
3779;SDS011;1905;52.482;9.802;2023-03-01T00:45:37;7.93;;;4.37;;
3779;SDS011;1905;52.482;9.802;2023-03-01T00:48:05;4.30;;;3.90;;
3779;SDS011;1905;52.482;9.802;2023-03-01T00:50:32;7.90;;;3.90;;
3779;SDS011;1905;52.482;9.802;2023-03-01T00:53:01;6.40;;;4.43;;
3779;SDS011;1905;52.482;9.802;2023-03-01T00:55:32;4.23;;;3.73;;
3779;SDS011;1905;52.482;9.802;2023-03-01T00:58:00;6.83;;;4.67;;
3779;SDS011;1905;52.482;9.802;2023-03-01T01:00:35;6.67;;;3.90;;
3779;SDS011;1905;52.482;9.802;2023-03-01T01:03:07;4.80;;;3.40;;
3779;SDS011;1905;52.482;9.802;2023-03-01T01:05:35;6.80;;;4.50;;
3779;SDS011;1905;52.482;9.802;2023-03-01T01:08:03;3.20;;;3.00;;
3779;SDS011;1905;52.482;9.802;2023-03-01T01:10:30;4.93;;;3.77;;
3779;SDS011;1905;52.482;9.802;2023-03-01T01:12:59;4.50;;;3.53;;
3779;SDS011;1905;52.482;9.802;2023-03-01T01:15:27;5.67;;;4.50;;
3779;SDS011;1905;52.482;9.802;2023-03-01T01:17:54;6.17;;;3.70;;
3779;SDS011;1905;52.482;9.802;2023-03-01T01:20:22;3.73;;;3.43;;
3779;SDS011;1905;52.482;9.802;2023-03-01T01:22:49;4.90;;;3.57;;
3779;SDS011;1905;52.482;9.802;2023-03-01T01:25:17;3.67;;;3.37;;
3779;SDS011;1905;52.482;9.802;2023-03-01T01:27:45;4.23;;;3.30;;
3779;SDS011;1905;52.482;9.802;2023-03-01T01:30:14;5.50;;;3.80;;
3779;SDS011;1905;52.482;9.802;2023-03-01T01:32:42;3.30;;;3.00;;
3779;SDS011;1905;52.482;9.802;2023-03-01T01:35:10;4.10;;;3.40;;
3779;SDS011;1905;52.482;9.802;2023-03-01T01:37:37;3.00;;;2.80;;
3779;SDS011;1905;52.482;9.802;2023-03-01T01:40:05;4.50;;;3.70;;
3779;SDS011;1905;52.482;9.802;2023-03-01T01:42:33;7.30;;;3.60;;
3779;SDS011;1905;52.482;9.802;2023-03-01T01:47:58;3.60;;;2.97;;
3779;SDS011;1905;52.482;9.802;2023-03-01T01:50:30;4.27;;;3.90;;
3779;SDS011;1905;52.482;9.802;2023-03-01T01:53:05;3.50;;;3.00;;
3779;SDS011;1905;52.482;9.802;2023-03-01T01:55:36;5.90;;;3.87;;
3779;SDS011;1905;52.482;9.802;2023-03-01T01:58:07;5.90;;;3.70;;
3779;SDS011;1905;52.482;9.802;2023-03-01T02:00:38;6.50;;;4.37;;
3779;SDS011;1905;52.482;9.802;2023-03-01T02:03:07;4.23;;;3.70;;
3779;SDS011;1905;52.482;9.802;2023-03-01T02:05:38;6.23;;;3.27;;
3779;SDS011;1905;52.482;9.802;2023-03-01T02:08:12;7.77;;;4.00;;
3779;SDS011;1905;52.482;9.802;2023-03-01T02:10:42;4.17;;;2.67;;
3779;SDS011;1905;52.482;9.802;2023-03-01T02:13:12;4.97;;;2.87;;
3779;SDS011;1905;52.482;9.802;2023-03-01T02:15:41;6.13;;;3.13;;
3779;SDS011;1905;52.482;9.802;2023-03-01T02:18:11;3.93;;;3.27;;
3779;SDS011;1905;52.482;9.802;2023-03-01T02:20:44;6.20;;;4.73;;
3779;SDS011;1905;52.482;9.802;2023-03-01T02:23:22;7.40;;;3.83;;
3779;SDS011;1905;52.482;9.802;2023-03-01T02:25:54;4.83;;;4.40;;
3779;SDS011;1905;52.482;9.802;2023-03-01T02:28:32;3.60;;;3.27;;
3779;SDS011;1905;52.482;9.802;2023-03-01T02:31:02;4.60;;;3.40;;
3779;SDS011;1905;52.482;9.802;2023-03-01T02:33:49;4.77;;;3.77;;
3779;SDS011;1905;52.482;9.802;2023-03-01T02:36:18;7.00;;;3.83;;
3779;SDS011;1905;52.482;9.802;2023-03-01T02:38:50;4.93;;;3.67;;
3779;SDS011;1905;52.482;9.802;2023-03-01T02:41:20;4.13;;;3.73;;
3779;SDS011;1905;52.482;9.802;2023-03-01T02:43:51;9.40;;;4.60;;
3779;SDS011;1905;52.482;9.802;2023-03-01T02:46:20;4.80;;;3.73;;
3779;SDS011;1905;52.482;9.802;2023-03-01T02:48:50;8.60;;;4.20;;
3779;SDS011;1905;52.482;9.802;2023-03-01T02:51:25;7.00;;;3.50;;
3779;SDS011;1905;52.482;9.802;2023-03-01T02:54:07;6.00;;;3.47;;
3779;SDS011;1905;52.482;9.802;2023-03-01T02:56:42;4.13;;;3.23;;
3779;SDS011;1905;52.482;9.802;2023-03-01T02:59:18;4.70;;;3.73;;
3779;SDS011;1905;52.482;9.802;2023-03-01T03:01:47;3.60;;;3.30;;
3779;SDS011;1905;52.482;9.802;2023-03-01T03:04:17;5.83;;;3.50;;
3779;SDS011;1905;52.482;9.802;2023-03-01T03:06:49;6.20;;;4.07;;
3779;SDS011;1905;52.482;9.802;2023-03-01T03:09:18;7.00;;;3.30;;
3779;SDS011;1905;52.482;9.802;2023-03-01T03:11:46;3.43;;;3.13;;
3779;SDS011;1905;52.482;9.802;2023-03-01T03:14:14;7.10;;;3.00;;
3779;SDS011;1905;52.482;9.802;2023-03-01T03:16:48;12.37;;;2.90;;
3779;SDS011;1905;52.482;9.802;2023-03-01T03:19:32;5.23;;;3.30;;
3779;SDS011;1905;52.482;9.802;2023-03-01T03:22:32;3.63;;;3.27;;
3779;SDS011;1905;52.482;9.802;2023-03-01T03:25:00;5.20;;;3.47;;
3779;SDS011;1905;52.482;9.802;2023-03-01T03:27:27;5.17;;;3.07;;
3779;SDS011;1905;52.482;9.802;2023-03-01T03:29:55;9.10;;;3.70;;
3779;SDS011;1905;52.482;9.802;2023-03-01T03:32:24;7.73;;;3.60;;
3779;SDS011;1905;52.482;9.802;2023-03-01T03:34:51;3.53;;;2.97;;
3779;SDS011;1905;52.482;9.802;2023-03-01T03:37:19;4.23;;;3.50;;
3779;SDS011;1905;52.482;9.802;2023-03-01T03:40:00;4.77;;;4.27;;
3779;SDS011;1905;52.482;9.802;2023-03-01T03:42:29;4.40;;;3.80;;
3779;SDS011;1905;52.482;9.802;2023-03-01T03:44:56;6.77;;;3.10;;
3779;SDS011;1905;52.482;9.802;2023-03-01T03:47:25;6.20;;;4.00;;
3779;SDS011;1905;52.482;9.802;2023-03-01T03:49:53;4.60;;;3.30;;
3779;SDS011;1905;52.482;9.802;2023-03-01T03:52:21;8.00;;;3.63;;
3779;SDS011;1905;52.482;9.802;2023-03-01T03:54:48;5.80;;;3.50;;
3779;SDS011;1905;52.482;9.802;2023-03-01T03:57:16;5.57;;;2.93;;
3779;SDS011;1905;52.482;9.802;2023-03-01T03:59:43;3.93;;;3.30;;
3779;SDS011;1905;52.482;9.802;2023-03-01T04:02:10;3.63;;;3.43;;
3779;SDS011;1905;52.482;9.802;2023-03-01T04:04:39;3.57;;;3.27;;
3779;SDS011;1905;52.482;9.802;2023-03-01T04:07:07;3.87;;;3.10;;
3779;SDS011;1905;52.482;9.802;2023-03-01T04:09:34;5.23;;;2.83;;
3779;SDS011;1905;52.482;9.802;2023-03-01T04:12:02;4.33;;;3.90;;
3779;SDS011;1905;52.482;9.802;2023-03-01T04:14:30;6.83;;;3.97;;
3779;SDS011;1905;52.482;9.802;2023-03-01T04:16:57;3.53;;;3.23;;
3779;SDS011;1905;52.482;9.802;2023-03-01T04:19:25;4.60;;;3.40;;
3779;SDS011;1905;52.482;9.802;2023-03-01T04:21:54;7.53;;;3.60;;
3779;SDS011;1905;52.482;9.802;2023-03-01T04:24:22;4.07;;;3.50;;
3779;SDS011;1905;52.482;9.802;2023-03-01T04:26:49;5.80;;;3.57;;
3779;SDS011;1905;52.482;9.802;2023-03-01T04:29:17;3.07;;;2.87;;
3779;SDS011;1905;52.482;9.802;2023-03-01T04:31:44;4.20;;;3.80;;
3779;SDS011;1905;52.482;9.802;2023-03-01T04:34:14;4.87;;;3.20;;
3779;SDS011;1905;52.482;9.802;2023-03-01T04:36:42;4.33;;;3.97;;
3779;SDS011;1905;52.482;9.802;2023-03-01T04:39:12;6.93;;;3.80;;
3779;SDS011;1905;52.482;9.802;2023-03-01T04:41:40;5.37;;;2.73;;
3779;SDS011;1905;52.482;9.802;2023-03-01T04:44:09;8.57;;;4.37;;
3779;SDS011;1905;52.482;9.802;2023-03-01T04:46:37;5.37;;;3.67;;
3779;SDS011;1905;52.482;9.802;2023-03-01T04:49:04;5.53;;;3.50;;
3779;SDS011;1905;52.482;9.802;2023-03-01T04:51:32;6.73;;;3.83;;
3779;SDS011;1905;52.482;9.802;2023-03-01T04:53:59;4.13;;;3.73;;
3779;SDS011;1905;52.482;9.802;2023-03-01T04:56:28;4.33;;;3.93;;
3779;SDS011;1905;52.482;9.802;2023-03-01T04:58:57;3.30;;;3.00;;
3779;SDS011;1905;52.482;9.802;2023-03-01T05:01:26;6.70;;;3.70;;
3779;SDS011;1905;52.482;9.802;2023-03-01T05:03:53;5.20;;;4.30;;
3779;SDS011;1905;52.482;9.802;2023-03-01T05:06:21;4.90;;;3.63;;
3779;SDS011;1905;52.482;9.802;2023-03-01T05:08:49;3.27;;;2.97;;
3779;SDS011;1905;52.482;9.802;2023-03-01T05:11:16;9.40;;;4.03;;
3779;SDS011;1905;52.482;9.802;2023-03-01T05:13:45;8.30;;;4.17;;
3779;SDS011;1905;52.482;9.802;2023-03-01T05:16:13;3.80;;;3.53;;
3779;SDS011;1905;52.482;9.802;2023-03-01T05:18:40;8.00;;;4.10;;
3779;SDS011;1905;52.482;9.802;2023-03-01T05:21:09;4.27;;;3.47;;
3779;SDS011;1905;52.482;9.802;2023-03-01T05:23:38;4.63;;;4.03;;
3779;SDS011;1905;52.482;9.802;2023-03-01T05:26:06;4.33;;;3.63;;
3779;SDS011;1905;52.482;9.802;2023-03-01T05:28:54;4.20;;;3.80;;
3779;SDS011;1905;52.482;9.802;2023-03-01T05:31:25;4.40;;;3.47;;
3779;SDS011;1905;52.482;9.802;2023-03-01T05:33:53;4.60;;;4.17;;
3779;SDS011;1905;52.482;9.802;2023-03-01T05:36:20;4.53;;;3.47;;
3779;SDS011;1905;52.482;9.802;2023-03-01T05:38:48;6.83;;;5.00;;
3779;SDS011;1905;52.482;9.802;2023-03-01T05:41:15;6.57;;;3.60;;
3779;SDS011;1905;52.482;9.802;2023-03-01T05:43:43;3.73;;;3.33;;
3779;SDS011;1905;52.482;9.802;2023-03-01T05:46:12;15.53;;;4.27;;
3779;SDS011;1905;52.482;9.802;2023-03-01T05:48:41;6.33;;;3.67;;
3779;SDS011;1905;52.482;9.802;2023-03-01T05:51:09;13.80;;;3.90;;
3779;SDS011;1905;52.482;9.802;2023-03-01T05:53:38;9.00;;;4.50;;
3779;SDS011;1905;52.482;9.802;2023-03-01T05:56:05;5.67;;;4.10;;
3779;SDS011;1905;52.482;9.802;2023-03-01T05:58:33;3.93;;;3.50;;
3779;SDS011;1905;52.482;9.802;2023-03-01T06:01:00;6.37;;;4.10;;
3779;SDS011;1905;52.482;9.802;2023-03-01T06:03:29;7.40;;;4.93;;
3779;SDS011;1905;52.482;9.802;2023-03-01T06:05:57;3.70;;;3.30;;
3779;SDS011;1905;52.482;9.802;2023-03-01T06:08:25;4.50;;;3.80;;
3779;SDS011;1905;52.482;9.802;2023-03-01T06:10:53;5.30;;;3.87;;
3779;SDS011;1905;52.482;9.802;2023-03-01T06:13:21;9.30;;;4.97;;
3779;SDS011;1905;52.482;9.802;2023-03-01T06:15:49;3.80;;;3.50;;
3779;SDS011;1905;52.482;9.802;2023-03-01T06:18:17;6.70;;;3.33;;
3779;SDS011;1905;52.482;9.802;2023-03-01T06:20:51;7.23;;;4.00;;
3779;SDS011;1905;52.482;9.802;2023-03-01T06:23:20;6.43;;;4.07;;
3779;SDS011;1905;52.482;9.802;2023-03-01T06:25:47;9.80;;;4.47;;
3779;SDS011;1905;52.482;9.802;2023-03-01T06:28:15;6.20;;;4.13;;
3779;SDS011;1905;52.482;9.802;2023-03-01T06:30:42;8.77;;;4.27;;
3779;SDS011;1905;52.482;9.802;2023-03-01T06:33:10;6.10;;;4.43;;
3779;SDS011;1905;52.482;9.802;2023-03-01T06:35:37;7.60;;;4.80;;
3779;SDS011;1905;52.482;9.802;2023-03-01T06:38:06;6.77;;;4.60;;
3779;SDS011;1905;52.482;9.802;2023-03-01T06:40:34;4.27;;;3.80;;
3779;SDS011;1905;52.482;9.802;2023-03-01T06:43:02;4.17;;;3.87;;
3779;SDS011;1905;52.482;9.802;2023-03-01T06:45:30;11.50;;;5.77;;
3779;SDS011;1905;52.482;9.802;2023-03-01T06:48:01;4.80;;;4.30;;
3779;SDS011;1905;52.482;9.802;2023-03-01T06:50:30;3.83;;;3.50;;
3779;SDS011;1905;52.482;9.802;2023-03-01T06:52:58;3.67;;;3.37;;
3779;SDS011;1905;52.482;9.802;2023-03-01T06:55:27;9.53;;;4.47;;
3779;SDS011;1905;52.482;9.802;2023-03-01T06:57:55;6.67;;;4.87;;
3779;SDS011;1905;52.482;9.802;2023-03-01T07:00:23;6.33;;;5.60;;
3779;SDS011;1905;52.482;9.802;2023-03-01T07:02:52;5.40;;;3.90;;
3779;SDS011;1905;52.482;9.802;2023-03-01T07:05:20;8.30;;;5.83;;
3779;SDS011;1905;52.482;9.802;2023-03-01T07:07:48;4.83;;;4.43;;
3779;SDS011;1905;52.482;9.802;2023-03-01T07:10:16;6.07;;;4.97;;
3779;SDS011;1905;52.482;9.802;2023-03-01T07:12:45;8.00;;;5.53;;
3779;SDS011;1905;52.482;9.802;2023-03-01T07:15:13;7.77;;;5.20;;
3779;SDS011;1905;52.482;9.802;2023-03-01T07:17:41;4.63;;;4.30;;
3779;SDS011;1905;52.482;9.802;2023-03-01T07:20:11;8.47;;;6.43;;
3779;SDS011;1905;52.482;9.802;2023-03-01T07:22:39;11.00;;;5.77;;
3779;SDS011;1905;52.482;9.802;2023-03-01T07:25:08;11.13;;;5.40;;
3779;SDS011;1905;52.482;9.802;2023-03-01T07:27:35;6.63;;;5.53;;
3779;SDS011;1905;52.482;9.802;2023-03-01T07:30:06;7.17;;;5.57;;
3779;SDS011;1905;52.482;9.802;2023-03-01T07:32:34;6.37;;;5.77;;
3779;SDS011;1905;52.482;9.802;2023-03-01T07:35:02;5.60;;;4.77;;
3779;SDS011;1905;52.482;9.802;2023-03-01T07:37:32;11.00;;;6.03;;
3779;SDS011;1905;52.482;9.802;2023-03-01T07:39:59;6.20;;;5.17;;
3779;SDS011;1905;52.482;9.802;2023-03-01T07:42:27;8.80;;;5.60;;
3779;SDS011;1905;52.482;9.802;2023-03-01T07:44:54;6.40;;;4.30;;
3779;SDS011;1905;52.482;9.802;2023-03-01T07:47:23;8.07;;;5.90;;
3779;SDS011;1905;52.482;9.802;2023-03-01T07:49:51;8.50;;;6.70;;
3779;SDS011;1905;52.482;9.802;2023-03-01T07:52:18;14.93;;;7.93;;
3779;SDS011;1905;52.482;9.802;2023-03-01T07:54:46;8.83;;;6.03;;
3779;SDS011;1905;52.482;9.802;2023-03-01T07:57:13;8.43;;;6.00;;
3779;SDS011;1905;52.482;9.802;2023-03-01T07:59:42;14.40;;;7.33;;
3779;SDS011;1905;52.482;9.802;2023-03-01T08:02:10;10.47;;;6.97;;
3779;SDS011;1905;52.482;9.802;2023-03-01T08:04:39;8.90;;;6.50;;
3779;SDS011;1905;52.482;9.802;2023-03-01T08:07:07;16.50;;;7.07;;
3779;SDS011;1905;52.482;9.802;2023-03-01T08:09:35;7.47;;;5.83;;
3779;SDS011;1905;52.482;9.802;2023-03-01T08:12:03;8.90;;;5.50;;
3779;SDS011;1905;52.482;9.802;2023-03-01T08:14:31;7.80;;;6.10;;
3779;SDS011;1905;52.482;9.802;2023-03-01T08:16:59;8.80;;;7.50;;
3779;SDS011;1905;52.482;9.802;2023-03-01T08:19:29;10.20;;;6.43;;
3779;SDS011;1905;52.482;9.802;2023-03-01T08:21:58;9.10;;;7.07;;
3779;SDS011;1905;52.482;9.802;2023-03-01T08:24:26;10.77;;;6.87;;
3779;SDS011;1905;52.482;9.802;2023-03-01T08:26:53;9.33;;;6.53;;
3779;SDS011;1905;52.482;9.802;2023-03-01T08:29:21;9.63;;;7.63;;
3779;SDS011;1905;52.482;9.802;2023-03-01T08:31:50;10.63;;;7.13;;
3779;SDS011;1905;52.482;9.802;2023-03-01T08:34:18;11.53;;;6.60;;
3779;SDS011;1905;52.482;9.802;2023-03-01T08:36:46;19.40;;;6.47;;
3779;SDS011;1905;52.482;9.802;2023-03-01T08:39:15;6.33;;;5.70;;
3779;SDS011;1905;52.482;9.802;2023-03-01T08:41:47;7.93;;;6.43;;
3779;SDS011;1905;52.482;9.802;2023-03-01T08:44:15;11.70;;;7.77;;
3779;SDS011;1905;52.482;9.802;2023-03-01T08:46:43;16.27;;;6.83;;
3779;SDS011;1905;52.482;9.802;2023-03-01T08:49:12;14.27;;;8.03;;
3779;SDS011;1905;52.482;9.802;2023-03-01T08:51:42;15.83;;;7.20;;
3779;SDS011;1905;52.482;9.802;2023-03-01T08:54:10;13.30;;;7.00;;
3779;SDS011;1905;52.482;9.802;2023-03-01T08:56:44;8.00;;;7.17;;
3779;SDS011;1905;52.482;9.802;2023-03-01T08:59:13;11.33;;;7.70;;
3779;SDS011;1905;52.482;9.802;2023-03-01T09:01:41;7.13;;;6.10;;
3779;SDS011;1905;52.482;9.802;2023-03-01T09:04:10;12.30;;;7.77;;
3779;SDS011;1905;52.482;9.802;2023-03-01T09:06:38;13.00;;;8.40;;
3779;SDS011;1905;52.482;9.802;2023-03-01T09:09:06;7.43;;;6.17;;
3779;SDS011;1905;52.482;9.802;2023-03-01T09:11:41;10.53;;;7.20;;
3779;SDS011;1905;52.482;9.802;2023-03-01T09:14:14;11.20;;;8.40;;
3779;SDS011;1905;52.482;9.802;2023-03-01T09:16:43;8.90;;;7.23;;
3779;SDS011;1905;52.482;9.802;2023-03-01T09:19:11;17.53;;;6.73;;
3779;SDS011;1905;52.482;9.802;2023-03-01T09:21:38;11.17;;;5.43;;
3779;SDS011;1905;52.482;9.802;2023-03-01T09:24:07;6.33;;;5.27;;
3779;SDS011;1905;52.482;9.802;2023-03-01T09:26:40;8.17;;;4.90;;
3779;SDS011;1905;52.482;9.802;2023-03-01T09:29:08;9.20;;;5.83;;
3779;SDS011;1905;52.482;9.802;2023-03-01T09:31:37;12.70;;;5.93;;
3779;SDS011;1905;52.482;9.802;2023-03-01T09:34:06;7.90;;;5.57;;
3779;SDS011;1905;52.482;9.802;2023-03-01T09:36:34;6.93;;;6.33;;
3779;SDS011;1905;52.482;9.802;2023-03-01T09:39:02;9.70;;;5.43;;
3779;SDS011;1905;52.482;9.802;2023-03-01T09:41:42;7.00;;;6.07;;
3779;SDS011;1905;52.482;9.802;2023-03-01T09:44:15;10.23;;;6.20;;
3779;SDS011;1905;52.482;9.802;2023-03-01T09:46:55;11.63;;;5.00;;
3779;SDS011;1905;52.482;9.802;2023-03-01T09:49:23;8.20;;;5.40;;
3779;SDS011;1905;52.482;9.802;2023-03-01T09:51:54;19.23;;;6.33;;
3779;SDS011;1905;52.482;9.802;2023-03-01T09:54:26;10.33;;;5.20;;
3779;SDS011;1905;52.482;9.802;2023-03-01T09:59:47;7.60;;;4.73;;
3779;SDS011;1905;52.482;9.802;2023-03-01T10:02:27;10.40;;;5.47;;
3779;SDS011;1905;52.482;9.802;2023-03-01T10:05:05;7.47;;;3.80;;
3779;SDS011;1905;52.482;9.802;2023-03-01T10:07:47;5.00;;;3.60;;
3779;SDS011;1905;52.482;9.802;2023-03-01T10:10:26;8.43;;;3.80;;
3779;SDS011;1905;52.482;9.802;2023-03-01T10:12:55;11.50;;;5.37;;
3779;SDS011;1905;52.482;9.802;2023-03-01T10:15:25;8.80;;;4.47;;
3779;SDS011;1905;52.482;9.802;2023-03-01T10:18:04;6.90;;;3.63;;
3779;SDS011;1905;52.482;9.802;2023-03-01T10:20:40;4.83;;;4.10;;
3779;SDS011;1905;52.482;9.802;2023-03-01T10:23:13;17.93;;;4.47;;
3779;SDS011;1905;52.482;9.802;2023-03-01T10:25:47;6.90;;;3.80;;
3779;SDS011;1905;52.482;9.802;2023-03-01T10:28:25;6.30;;;3.80;;
3779;SDS011;1905;52.482;9.802;2023-03-01T10:30:57;4.83;;;3.73;;
3779;SDS011;1905;52.482;9.802;2023-03-01T10:33:28;8.60;;;4.90;;
3779;SDS011;1905;52.482;9.802;2023-03-01T10:35:58;5.67;;;3.50;;
3779;SDS011;1905;52.482;9.802;2023-03-01T10:38:25;5.23;;;4.70;;
3779;SDS011;1905;52.482;9.802;2023-03-01T10:40:56;4.83;;;3.20;;
3779;SDS011;1905;52.482;9.802;2023-03-01T10:43:26;8.83;;;3.63;;
3779;SDS011;1905;52.482;9.802;2023-03-01T10:45:59;16.20;;;3.90;;
3779;SDS011;1905;52.482;9.802;2023-03-01T10:48:27;3.67;;;2.93;;
3779;SDS011;1905;52.482;9.802;2023-03-01T10:51:04;8.97;;;3.00;;
3779;SDS011;1905;52.482;9.802;2023-03-01T10:53:34;3.83;;;3.33;;
3779;SDS011;1905;52.482;9.802;2023-03-01T10:56:04;8.67;;;4.37;;
3779;SDS011;1905;52.482;9.802;2023-03-01T10:58:34;5.80;;;3.33;;
3779;SDS011;1905;52.482;9.802;2023-03-01T11:01:04;6.50;;;4.17;;
3779;SDS011;1905;52.482;9.802;2023-03-01T11:03:34;5.30;;;3.60;;
3779;SDS011;1905;52.482;9.802;2023-03-01T11:06:04;5.30;;;3.40;;
3779;SDS011;1905;52.482;9.802;2023-03-01T11:08:47;4.03;;;2.80;;
3779;SDS011;1905;52.482;9.802;2023-03-01T11:11:22;3.80;;;3.40;;
3779;SDS011;1905;52.482;9.802;2023-03-01T11:13:57;7.50;;;3.57;;
3779;SDS011;1905;52.482;9.802;2023-03-01T11:16:31;3.13;;;2.70;;
3779;SDS011;1905;52.482;9.802;2023-03-01T11:19:14;5.73;;;3.80;;
3779;SDS011;1905;52.482;9.802;2023-03-01T11:21:47;3.23;;;2.77;;
3779;SDS011;1905;52.482;9.802;2023-03-01T11:24:22;4.27;;;3.57;;
3779;SDS011;1905;52.482;9.802;2023-03-01T11:26:54;2.10;;;1.90;;
3779;SDS011;1905;52.482;9.802;2023-03-01T11:29:25;3.37;;;2.20;;
3779;SDS011;1905;52.482;9.802;2023-03-01T11:32:06;2.87;;;1.93;;
3779;SDS011;1905;52.482;9.802;2023-03-01T11:34:38;3.67;;;2.53;;
3779;SDS011;1905;52.482;9.802;2023-03-01T11:37:16;3.50;;;2.50;;
3779;SDS011;1905;52.482;9.802;2023-03-01T11:39:53;2.70;;;2.50;;
3779;SDS011;1905;52.482;9.802;2023-03-01T11:42:28;4.07;;;3.03;;
3779;SDS011;1905;52.482;9.802;2023-03-01T11:45:06;2.43;;;2.23;;
3779;SDS011;1905;52.482;9.802;2023-03-01T11:47:44;2.90;;;2.43;;
3779;SDS011;1905;52.482;9.802;2023-03-01T11:50:28;3.40;;;2.70;;
3779;SDS011;1905;52.482;9.802;2023-03-01T11:53:09;3.13;;;2.83;;
3779;SDS011;1905;52.482;9.802;2023-03-01T11:55:57;9.87;;;3.43;;
3779;SDS011;1905;52.482;9.802;2023-03-01T11:58:38;2.80;;;2.60;;
3779;SDS011;1905;52.482;9.802;2023-03-01T12:01:22;5.43;;;3.00;;
3779;SDS011;1905;52.482;9.802;2023-03-01T12:04:08;7.20;;;3.50;;
3779;SDS011;1905;52.482;9.802;2023-03-01T12:06:54;5.13;;;3.13;;
3779;SDS011;1905;52.482;9.802;2023-03-01T12:09:27;4.53;;;3.13;;
3779;SDS011;1905;52.482;9.802;2023-03-01T12:12:09;3.50;;;2.43;;
3779;SDS011;1905;52.482;9.802;2023-03-01T12:14:52;4.17;;;2.83;;
3779;SDS011;1905;52.482;9.802;2023-03-01T12:17:35;3.73;;;2.53;;
3779;SDS011;1905;52.482;9.802;2023-03-01T12:20:14;5.63;;;2.80;;
3779;SDS011;1905;52.482;9.802;2023-03-01T12:22:52;4.47;;;2.80;;
3779;SDS011;1905;52.482;9.802;2023-03-01T12:25:46;2.70;;;2.33;;
3779;SDS011;1905;52.482;9.802;2023-03-01T12:28:30;3.63;;;2.40;;
3779;SDS011;1905;52.482;9.802;2023-03-01T12:34:16;4.30;;;3.33;;
3779;SDS011;1905;52.482;9.802;2023-03-01T12:36:58;4.23;;;2.90;;
3779;SDS011;1905;52.482;9.802;2023-03-01T12:39:45;3.70;;;2.40;;
3779;SDS011;1905;52.482;9.802;2023-03-01T12:42:25;6.23;;;3.03;;
3779;SDS011;1905;52.482;9.802;2023-03-01T12:45:02;4.80;;;3.20;;
3779;SDS011;1905;52.482;9.802;2023-03-01T12:47:50;3.90;;;2.97;;
3779;SDS011;1905;52.482;9.802;2023-03-01T12:50:32;3.20;;;2.40;;
3779;SDS011;1905;52.482;9.802;2023-03-01T12:53:07;6.60;;;2.70;;
3779;SDS011;1905;52.482;9.802;2023-03-01T12:55:48;12.67;;;3.87;;
3779;SDS011;1905;52.482;9.802;2023-03-01T12:58:20;4.57;;;3.17;;
3779;SDS011;1905;52.482;9.802;2023-03-01T13:01:13;9.37;;;3.30;;
3779;SDS011;1905;52.482;9.802;2023-03-01T13:03:56;5.07;;;2.63;;
3779;SDS011;1905;52.482;9.802;2023-03-01T13:06:32;4.23;;;2.40;;
3779;SDS011;1905;52.482;9.802;2023-03-01T13:09:11;4.53;;;2.77;;
3779;SDS011;1905;52.482;9.802;2023-03-01T13:11:50;3.03;;;2.83;;
3779;SDS011;1905;52.482;9.802;2023-03-01T13:14:36;4.10;;;2.77;;
3779;SDS011;1905;52.482;9.802;2023-03-01T13:17:30;3.33;;;3.00;;
3779;SDS011;1905;52.482;9.802;2023-03-01T13:19:59;6.63;;;3.53;;
3779;SDS011;1905;52.482;9.802;2023-03-01T13:22:29;4.60;;;3.20;;
3779;SDS011;1905;52.482;9.802;2023-03-01T13:25:13;3.20;;;2.90;;
3779;SDS011;1905;52.482;9.802;2023-03-01T13:27:45;5.13;;;2.70;;
3779;SDS011;1905;52.482;9.802;2023-03-01T13:36:13;3.40;;;3.07;;
3779;SDS011;1905;52.482;9.802;2023-03-01T13:39:30;4.77;;;3.00;;
3779;SDS011;1905;52.482;9.802;2023-03-01T13:41:59;3.10;;;2.73;;
3779;SDS011;1905;52.482;9.802;2023-03-01T13:44:31;3.43;;;2.43;;
3779;SDS011;1905;52.482;9.802;2023-03-01T13:47:03;3.07;;;2.30;;
3779;SDS011;1905;52.482;9.802;2023-03-01T13:49:44;3.90;;;2.97;;
3779;SDS011;1905;52.482;9.802;2023-03-01T13:52:23;4.60;;;3.40;;
3779;SDS011;1905;52.482;9.802;2023-03-01T13:55:13;4.37;;;3.20;;
3779;SDS011;1905;52.482;9.802;2023-03-01T13:57:46;2.20;;;2.10;;
3779;SDS011;1905;52.482;9.802;2023-03-01T14:00:28;5.10;;;2.83;;
3779;SDS011;1905;52.482;9.802;2023-03-01T14:03:05;3.93;;;2.90;;
3779;SDS011;1905;52.482;9.802;2023-03-01T14:05:40;4.07;;;3.13;;
3779;SDS011;1905;52.482;9.802;2023-03-01T14:08:18;4.50;;;2.83;;
3779;SDS011;1905;52.482;9.802;2023-03-01T14:10:54;3.23;;;2.63;;
3779;SDS011;1905;52.482;9.802;2023-03-01T14:13:48;6.37;;;3.20;;
3779;SDS011;1905;52.482;9.802;2023-03-01T14:16:31;3.27;;;2.40;;
3779;SDS011;1905;52.482;9.802;2023-03-01T14:19:15;3.80;;;2.50;;
3779;SDS011;1905;52.482;9.802;2023-03-01T14:21:59;2.30;;;2.03;;
3779;SDS011;1905;52.482;9.802;2023-03-01T14:24:30;3.17;;;2.53;;
3779;SDS011;1905;52.482;9.802;2023-03-01T14:27:01;3.10;;;2.60;;
3779;SDS011;1905;52.482;9.802;2023-03-01T14:29:33;3.20;;;2.20;;
3779;SDS011;1905;52.482;9.802;2023-03-01T14:32:17;2.80;;;2.60;;
3779;SDS011;1905;52.482;9.802;2023-03-01T14:34:47;2.73;;;2.53;;
3779;SDS011;1905;52.482;9.802;2023-03-01T14:37:18;2.20;;;2.10;;
3779;SDS011;1905;52.482;9.802;2023-03-01T14:39:50;3.40;;;2.23;;
3779;SDS011;1905;52.482;9.802;2023-03-01T14:42:18;3.07;;;2.77;;
3779;SDS011;1905;52.482;9.802;2023-03-01T14:44:49;3.20;;;2.97;;
3779;SDS011;1905;52.482;9.802;2023-03-01T14:47:22;3.77;;;3.40;;
3779;SDS011;1905;52.482;9.802;2023-03-01T14:49:55;3.30;;;2.70;;
3779;SDS011;1905;52.482;9.802;2023-03-01T14:52:28;3.47;;;2.03;;
3779;SDS011;1905;52.482;9.802;2023-03-01T14:55:02;2.43;;;1.77;;
3779;SDS011;1905;52.482;9.802;2023-03-01T14:57:32;2.03;;;1.80;;
3779;SDS011;1905;52.482;9.802;2023-03-01T15:00:00;4.40;;;2.53;;
3779;SDS011;1905;52.482;9.802;2023-03-01T15:02:35;3.47;;;2.10;;
3779;SDS011;1905;52.482;9.802;2023-03-01T15:05:09;3.30;;;2.10;;
3779;SDS011;1905;52.482;9.802;2023-03-01T15:07:38;1.80;;;1.60;;
3779;SDS011;1905;52.482;9.802;2023-03-01T15:10:14;9.00;;;2.30;;
3779;SDS011;1905;52.482;9.802;2023-03-01T15:12:47;2.30;;;2.00;;
3779;SDS011;1905;52.482;9.802;2023-03-01T15:15:19;3.47;;;2.20;;
3779;SDS011;1905;52.482;9.802;2023-03-01T15:17:52;2.40;;;1.60;;
3779;SDS011;1905;52.482;9.802;2023-03-01T15:20:22;1.53;;;1.40;;
3779;SDS011;1905;52.482;9.802;2023-03-01T15:22:53;3.57;;;2.00;;
3779;SDS011;1905;52.482;9.802;2023-03-01T15:25:22;2.60;;;2.07;;
3779;SDS011;1905;52.482;9.802;2023-03-01T15:27:53;3.07;;;1.63;;
3779;SDS011;1905;52.482;9.802;2023-03-01T15:30:23;2.30;;;1.40;;
3779;SDS011;1905;52.482;9.802;2023-03-01T15:35:47;1.90;;;1.57;;
3779;SDS011;1905;52.482;9.802;2023-03-01T15:38:29;6.40;;;1.93;;
3779;SDS011;1905;52.482;9.802;2023-03-01T15:41:01;1.87;;;1.77;;
3779;SDS011;1905;52.482;9.802;2023-03-01T15:43:37;2.00;;;1.87;;
3779;SDS011;1905;52.482;9.802;2023-03-01T15:46:11;2.33;;;1.80;;
3779;SDS011;1905;52.482;9.802;2023-03-01T15:48:46;3.27;;;2.23;;
3779;SDS011;1905;52.482;9.802;2023-03-01T15:51:15;4.97;;;2.23;;
3779;SDS011;1905;52.482;9.802;2023-03-01T15:53:43;2.20;;;1.80;;
3779;SDS011;1905;52.482;9.802;2023-03-01T15:56:20;4.30;;;1.90;;
3779;SDS011;1905;52.482;9.802;2023-03-01T15:58:47;3.07;;;1.67;;
3779;SDS011;1905;52.482;9.802;2023-03-01T16:01:16;3.50;;;1.87;;